createdAt,value
2023-05-17T00:01:01.367Z,1023.1
2023-05-17T00:02:17.527Z,1023.1
2023-05-17T00:03:33.665Z,1023.1
2023-05-17T00:04:49.818Z,1023.1
2023-05-17T00:06:05.946Z,1023.1
2023-05-17T00:07:22.092Z,1023.1
2023-05-17T00:08:38.237Z,1023.2
2023-05-17T00:09:54.373Z,1023.2
2023-05-17T00:11:10.533Z,1023.1
2023-05-17T00:12:26.681Z,1023.2
2023-05-17T00:13:42.825Z,1023.1
2023-05-17T00:14:57.980Z,1023.2
2023-05-17T00:16:14.131Z,1023.2
2023-05-17T00:17:30.259Z,1023.2
2023-05-17T00:18:46.411Z,1023.1
2023-05-17T00:20:02.548Z,1023.2
2023-05-17T00:21:17.710Z,1023.2
2023-05-17T00:22:33.861Z,1023.2
2023-05-17T00:23:50.019Z,1023.2
2023-05-17T00:25:06.162Z,1023.2
2023-05-17T00:26:22.298Z,1023.2
2023-05-17T00:27:38.442Z,1023.2
2023-05-17T00:28:54.601Z,1023.1
2023-05-17T00:30:10.751Z,1023.1
2023-05-17T00:31:26.887Z,1023.2
2023-05-17T00:32:43.053Z,1023.2
2023-05-17T00:33:59.197Z,1023.1
2023-05-17T00:35:15.354Z,1023.2
2023-05-17T00:36:31.499Z,1023.2
2023-05-17T00:37:46.675Z,1023.2
2023-05-17T00:39:02.812Z,1023.3
2023-05-17T00:40:18.961Z,1023.3
2023-05-17T00:41:35.099Z,1023.2
2023-05-17T00:42:51.243Z,1023.3
2023-05-17T00:44:07.396Z,1023.3
2023-05-17T00:45:23.538Z,1023.3
2023-05-17T00:46:39.689Z,1023.3
2023-05-17T00:47:55.838Z,1023.3
2023-05-17T00:49:11.982Z,1023.3
2023-05-17T00:50:28.140Z,1023.2
2023-05-17T00:51:44.277Z,1023.2
2023-05-17T00:53:00.438Z,1023.3
2023-05-17T00:54:15.597Z,1023.2
2023-05-17T00:55:31.739Z,1023.3
2023-05-17T00:56:47.898Z,1023.2
2023-05-17T00:58:04.049Z,1023.2
2023-05-17T00:59:20.193Z,1023.2
2023-05-17T01:00:36.358Z,1023.2
2023-05-17T01:01:52.509Z,1023.2
2023-05-17T01:03:08.660Z,1023.2
2023-05-17T01:04:24.802Z,1023.2
2023-05-17T01:05:40.968Z,1023.2
2023-05-17T01:06:57.123Z,1023.1
2023-05-17T01:08:13.256Z,1023.2
2023-05-17T01:09:29.427Z,1023.2
2023-05-17T01:10:44.583Z,1023.1
2023-05-17T01:12:00.733Z,1023.2
2023-05-17T01:13:16.884Z,1023.1
2023-05-17T01:14:33.042Z,1023.1
2023-05-17T01:15:49.192Z,1023.1
2023-05-17T01:17:05.337Z,1023.2
2023-05-17T01:18:21.480Z,1023.1
2023-05-17T01:19:37.632Z,1023.1
2023-05-17T01:20:53.768Z,1023.1
2023-05-17T01:22:09.918Z,1023.2
2023-05-17T01:23:26.077Z,1023.2
2023-05-17T01:24:42.214Z,1023.2
2023-05-17T01:25:58.350Z,1023.1
2023-05-17T01:27:13.512Z,1023.1
2023-05-17T01:28:29.662Z,1023.1
2023-05-17T01:29:45.799Z,1023.1
2023-05-17T01:31:01.945Z,1023.2
2023-05-17T01:32:18.093Z,1023.2
2023-05-17T01:33:34.231Z,1023.2
2023-05-17T01:34:50.381Z,1023.2
2023-05-17T01:36:06.531Z,1023.2
2023-05-17T01:37:22.676Z,1023.2
2023-05-17T01:38:38.805Z,1023.2
2023-05-17T01:39:54.957Z,1023.3
2023-05-17T01:41:11.095Z,1023.2
2023-05-17T01:42:27.229Z,1023.2
2023-05-17T01:43:42.402Z,1023.2
2023-05-17T01:44:58.552Z,1023.2
2023-05-17T01:46:14.696Z,1023.2
2023-05-17T01:47:30.831Z,1023.2
2023-05-17T01:48:46.975Z,1023.2
2023-05-17T01:50:03.117Z,1023.2
2023-05-17T01:51:19.262Z,1023.2
2023-05-17T01:52:35.407Z,1023.1
2023-05-17T01:53:51.548Z,1023.2
2023-05-17T01:55:07.706Z,1023.2
2023-05-17T01:56:23.836Z,1023.2
2023-05-17T01:57:39.988Z,1023.2
2023-05-17T01:58:56.124Z,1023.2
2023-05-17T02:00:11.285Z,1023.2
2023-05-17T02:01:27.429Z,1023.2
2023-05-17T02:02:43.566Z,1023.3
2023-05-17T02:03:59.703Z,1023.3
2023-05-17T02:05:15.854Z,1023.3
2023-05-17T02:06:31.991Z,1023.3
2023-05-17T02:09:04.278Z,1023.3
2023-05-17T02:10:20.436Z,1023.3
2023-05-17T02:11:36.581Z,1023.3
2023-05-17T02:12:52.743Z,1023.3
2023-05-17T02:14:08.894Z,1023.4
2023-05-17T02:15:25.039Z,1023.3
2023-05-17T02:16:40.201Z,1023.3
2023-05-17T02:17:56.345Z,1023.3
2023-05-17T02:19:12.497Z,1023.4
2023-05-17T02:20:28.646Z,1023.4
2023-05-17T02:21:44.797Z,1023.3
2023-05-17T02:24:17.092Z,1023.3
2023-05-17T02:25:33.250Z,1023.3
2023-05-17T02:26:49.408Z,1023.3
2023-05-17T02:28:05.565Z,1023.4
2023-05-17T02:29:21.716Z,1023.3
2023-05-17T02:30:37.860Z,1023.4
2023-05-17T02:31:54.017Z,1023.4
2023-05-17T02:33:09.186Z,1023.4
2023-05-17T02:34:25.344Z,1023.4
2023-05-17T02:35:41.488Z,1023.4
2023-05-17T02:36:57.625Z,1023.4
2023-05-17T02:38:13.768Z,1023.4
2023-05-17T02:39:29.933Z,1023.5
2023-05-17T02:40:46.076Z,1023.5
2023-05-17T02:42:02.213Z,1023.5
2023-05-17T02:43:18.371Z,1023.4
2023-05-17T02:44:34.516Z,1023.4
2023-05-17T02:45:50.666Z,1023.4
2023-05-17T02:47:06.830Z,1023.5
2023-05-17T02:48:22.983Z,1023.5
2023-05-17T02:49:38.131Z,1023.5
2023-05-17T02:50:54.274Z,1023.5
2023-05-17T02:52:10.442Z,1023.5
2023-05-17T02:53:26.582Z,1023.5
2023-05-17T02:54:42.740Z,1023.5
2023-05-17T02:55:58.884Z,1023.5
2023-05-17T02:57:15.042Z,1023.5
2023-05-17T02:58:31.000Z,1023.6
2023-05-17T02:59:47.356Z,1023.5
2023-05-17T03:01:03.515Z,1023.5
2023-05-17T03:02:19.681Z,1023.5
2023-05-17T03:03:35.817Z,1023.5
2023-05-17T03:04:51.975Z,1023.5
2023-05-17T03:06:07.137Z,1023.6
2023-05-17T03:07:23.288Z,1023.6
2023-05-17T03:08:39.455Z,1023.6
2023-05-17T03:09:55.603Z,1023.6
2023-05-17T03:11:11.754Z,1023.7
2023-05-17T03:12:27.911Z,1023.7
2023-05-17T03:13:44.073Z,1023.7
2023-05-17T03:15:00.207Z,1023.7
2023-05-17T03:16:16.364Z,1023.8
2023-05-17T03:17:32.522Z,1023.7
2023-05-17T03:18:48.687Z,1023.8
2023-05-17T03:20:04.832Z,1023.8
2023-05-17T03:21:20.989Z,1023.8
2023-05-17T03:22:36.159Z,1023.8
2023-05-17T03:23:52.308Z,1023.8
2023-05-17T03:25:08.456Z,1023.8
2023-05-17T03:26:24.602Z,1023.8
2023-05-17T03:27:40.768Z,1023.8
2023-05-17T03:28:56.927Z,1023.8
2023-05-17T03:30:13.063Z,1023.8
2023-05-17T03:31:29.220Z,1023.9
2023-05-17T03:32:45.377Z,1023.9
2023-05-17T03:34:01.543Z,1023.8
2023-05-17T03:35:17.686Z,1023.9
2023-05-17T03:36:33.840Z,1023.8
2023-05-17T03:37:49.991Z,1023.8
2023-05-17T03:39:05.172Z,1023.9
2023-05-17T03:40:21.315Z,1023.8
2023-05-17T03:41:37.467Z,1023.9
2023-05-17T03:42:53.618Z,1023.9
2023-05-17T03:44:09.768Z,1023.9
2023-05-17T03:45:25.933Z,1023.8
2023-05-17T03:46:42.070Z,1023.9
2023-05-17T03:47:58.209Z,1023.9
2023-05-17T03:49:14.364Z,1023.9
2023-05-17T03:50:30.515Z,1023.9
2023-05-17T03:51:46.666Z,1023.9
2023-05-17T03:53:02.823Z,1023.9
2023-05-17T03:54:18.967Z,1024
2023-05-17T03:55:34.136Z,1023.9
2023-05-17T03:56:50.281Z,1023.9
2023-05-17T03:58:06.424Z,1023.9
2023-05-17T03:59:22.590Z,1023.9
2023-05-17T04:00:38.746Z,1023.9
2023-05-17T04:01:54.899Z,1023.9
2023-05-17T04:03:11.048Z,1023.9
2023-05-17T04:04:27.205Z,1024
2023-05-17T04:05:43.358Z,1024
2023-05-17T04:06:59.501Z,1024.1
2023-05-17T04:08:15.658Z,1024.1
2023-05-17T04:09:31.817Z,1024.1
2023-05-17T04:10:47.967Z,1024.1
2023-05-17T04:12:03.143Z,1024.1
2023-05-17T04:13:19.294Z,1024.1
2023-05-17T04:14:35.454Z,1024.2
2023-05-17T04:15:51.619Z,1024.2
2023-05-17T04:17:07.781Z,1024.2
2023-05-17T04:18:23.939Z,1024.2
2023-05-17T04:19:40.083Z,1024.2
2023-05-17T04:20:56.258Z,1024.2
2023-05-17T04:22:12.419Z,1024.3
2023-05-17T04:23:28.572Z,1024.3
2023-05-17T04:24:44.714Z,1024.3
2023-05-17T04:26:00.882Z,1024.3
2023-05-17T04:27:17.045Z,1024.3
2023-05-17T04:28:32.208Z,1024.3
2023-05-17T04:29:48.381Z,1024.3
2023-05-17T04:31:04.522Z,1024.3
2023-05-17T04:32:20.687Z,1024.4
2023-05-17T04:33:36.847Z,1024.4
2023-05-17T04:34:53.016Z,1024.4
2023-05-17T04:36:08.196Z,1024.4
2023-05-17T04:37:24.345Z,1024.4
2023-05-17T04:38:40.503Z,1024.4
2023-05-17T04:39:56.646Z,1024.5
2023-05-17T04:41:12.796Z,1024.4
2023-05-17T04:42:28.964Z,1024.5
2023-05-17T04:43:45.105Z,1024.5
2023-05-17T04:45:01.249Z,1024.5
2023-05-17T04:46:17.422Z,1024.6
2023-05-17T04:47:33.579Z,1024.6
2023-05-17T04:48:49.728Z,1024.6
2023-05-17T04:50:05.894Z,1024.6
2023-05-17T04:51:22.051Z,1024.6
2023-05-17T04:52:37.215Z,1024.6
2023-05-17T04:53:53.379Z,1024.6
2023-05-17T04:55:09.522Z,1024.6
2023-05-17T04:56:25.695Z,1024.6
2023-05-17T04:57:41.853Z,1024.7
2023-05-17T04:58:57.998Z,1024.7
2023-05-17T05:00:14.162Z,1024.7
2023-05-17T05:01:30.319Z,1024.7
2023-05-17T05:02:46.493Z,1024.7
2023-05-17T05:04:02.635Z,1024.7
2023-05-17T05:05:18.806Z,1024.8
2023-05-17T05:06:34.954Z,1024.8
2023-05-17T05:07:51.109Z,1024.8
2023-05-17T05:09:06.292Z,1024.8
2023-05-17T05:10:22.429Z,1024.8
2023-05-17T05:11:38.587Z,1024.8
2023-05-17T05:12:54.754Z,1024.9
2023-05-17T05:14:10.895Z,1024.9
2023-05-17T05:15:27.068Z,1024.9
2023-05-17T05:16:43.220Z,1024.9
2023-05-17T05:17:59.384Z,1024.9
2023-05-17T05:19:15.547Z,1024.9
2023-05-17T05:20:31.700Z,1024.9
2023-05-17T05:21:47.863Z,1024.9
2023-05-17T05:23:04.031Z,1024.9
2023-05-17T05:24:20.186Z,1025
2023-05-17T05:25:35.348Z,1025
2023-05-17T05:26:51.515Z,1025
2023-05-17T05:28:07.656Z,1025.1
2023-05-17T05:29:23.823Z,1025
2023-05-17T05:30:39.982Z,1025.1
2023-05-17T05:31:56.148Z,1025.1
2023-05-17T05:33:12.302Z,1025.1
2023-05-17T05:34:28.462Z,1025.1
2023-05-17T05:35:44.618Z,1025.1
2023-05-17T05:37:00.783Z,1025.1
2023-05-17T05:38:16.934Z,1025.1
2023-05-17T05:39:33.090Z,1025.1
2023-05-17T05:40:49.242Z,1025.1
2023-05-17T05:42:04.417Z,1025.1
2023-05-17T05:43:20.583Z,1025.1
2023-05-17T05:44:36.742Z,1025.1
2023-05-17T05:45:52.906Z,1025.1
2023-05-17T05:47:09.066Z,1025.1
2023-05-17T05:48:25.230Z,1025.1
2023-05-17T05:49:41.373Z,1025.2
2023-05-17T05:50:57.520Z,1025.2
2023-05-17T05:52:13.684Z,1025.2
2023-05-17T05:53:29.839Z,1025.2
2023-05-17T05:54:45.990Z,1025.2
2023-05-17T05:56:02.149Z,1025.2
2023-05-17T05:57:18.313Z,1025.2
2023-05-17T05:58:33.468Z,1025.2
2023-05-17T05:59:49.633Z,1025.2
2023-05-17T06:01:05.791Z,1025.3
2023-05-17T06:02:21.949Z,1025.3
2023-05-17T06:03:38.100Z,1025.3
2023-05-17T06:04:54.265Z,1025.3
2023-05-17T06:06:10.431Z,1025.3
2023-05-17T06:07:26.580Z,1025.3
2023-05-17T06:08:42.731Z,1025.3
2023-05-17T06:09:58.888Z,1025.4
2023-05-17T06:11:15.039Z,1025.4
2023-05-17T06:12:31.212Z,1025.4
2023-05-17T06:13:47.369Z,1025.4
2023-05-17T06:15:02.547Z,1025.4
2023-05-17T06:16:18.704Z,1025.4
2023-05-17T06:17:34.847Z,1025.5
2023-05-17T06:18:51.006Z,1025.5
2023-05-17T06:20:07.171Z,1025.5
2023-05-17T06:21:23.315Z,1025.5
2023-05-17T06:22:39.462Z,1025.5
2023-05-17T06:23:55.601Z,1025.5
2023-05-17T06:25:11.773Z,1025.5
2023-05-17T06:26:27.924Z,1025.5
2023-05-17T06:27:44.075Z,1025.6
2023-05-17T06:29:00.226Z,1025.6
2023-05-17T06:30:16.362Z,1025.6
2023-05-17T06:31:31.539Z,1025.6
2023-05-17T06:32:47.686Z,1025.5
2023-05-17T06:34:03.847Z,1025.5
2023-05-17T06:35:20.008Z,1025.6
2023-05-17T06:36:36.157Z,1025.6
2023-05-17T06:37:52.312Z,1025.6
2023-05-17T06:39:08.464Z,1025.6
2023-05-17T06:40:24.630Z,1025.6
2023-05-17T06:41:40.773Z,1025.6
2023-05-17T06:42:56.948Z,1025.7
2023-05-17T06:44:13.103Z,1025.6
2023-05-17T06:45:29.248Z,1025.6
2023-05-17T06:46:45.405Z,1025.6
2023-05-17T06:48:00.577Z,1025.6
2023-05-17T06:49:16.710Z,1025.6
2023-05-17T06:50:32.869Z,1025.7
2023-05-17T06:51:49.026Z,1025.7
2023-05-17T06:53:05.162Z,1025.7
2023-05-17T06:54:21.322Z,1025.7
2023-05-17T06:55:37.471Z,1025.7
2023-05-17T06:56:53.636Z,1025.8
2023-05-17T06:58:09.788Z,1025.7
2023-05-17T06:59:25.931Z,1025.7
2023-05-17T07:00:42.082Z,1025.8
2023-05-17T07:01:58.225Z,1025.8
2023-05-17T07:03:14.384Z,1025.8
2023-05-17T07:04:29.538Z,1025.8
2023-05-17T07:05:45.690Z,1025.8
2023-05-17T07:07:01.839Z,1025.8
2023-05-17T07:08:17.998Z,1025.8
2023-05-17T07:09:34.138Z,1025.8
2023-05-17T07:10:50.298Z,1025.9
2023-05-17T07:12:06.450Z,1025.8
2023-05-17T07:13:22.594Z,1025.8
2023-05-17T07:14:38.743Z,1025.9
2023-05-17T07:15:54.892Z,1025.9
2023-05-17T07:17:11.047Z,1025.9
2023-05-17T07:18:27.183Z,1025.9
2023-05-17T07:19:43.348Z,1025.9
2023-05-17T07:20:58.509Z,1025.9
2023-05-17T07:22:14.653Z,1025.9
2023-05-17T07:23:30.790Z,1026
2023-05-17T07:24:46.946Z,1026
2023-05-17T07:26:03.086Z,1025.9
2023-05-17T07:27:19.249Z,1026
2023-05-17T07:28:35.406Z,1026
2023-05-17T07:29:51.545Z,1026
2023-05-17T07:31:07.703Z,1026
2023-05-17T07:32:23.853Z,1026
2023-05-17T07:33:39.990Z,1026
2023-05-17T07:34:56.154Z,1026
2023-05-17T07:36:12.293Z,1026
2023-05-17T07:37:27.454Z,1026
2023-05-17T07:38:43.618Z,1026
2023-05-17T07:39:59.770Z,1026
2023-05-17T07:41:15.919Z,1026
2023-05-17T07:42:32.064Z,1026.1
2023-05-17T07:43:48.215Z,1026.1
2023-05-17T07:45:04.351Z,1026
2023-05-17T07:46:20.504Z,1026
2023-05-17T07:47:36.659Z,1026.1
2023-05-17T07:48:52.796Z,1026
2023-05-17T07:50:08.942Z,1026.1
2023-05-17T07:51:25.089Z,1026.1
2023-05-17T07:52:41.257Z,1026.1
2023-05-17T07:53:56.404Z,1026.1
2023-05-17T07:55:12.555Z,1026.1
2023-05-17T07:56:28.720Z,1026.1
2023-05-17T07:57:44.865Z,1026.1
2023-05-17T07:59:01.014Z,1026.2
2023-05-17T08:00:17.174Z,1026.2
2023-05-17T08:01:33.324Z,1026.2
2023-05-17T08:02:49.474Z,1026.2
2023-05-17T08:04:05.631Z,1026.2
2023-05-17T08:05:21.768Z,1026.2
2023-05-17T08:06:37.919Z,1026.3
2023-05-17T08:07:54.063Z,1026.3
2023-05-17T08:09:10.235Z,1026.3
2023-05-17T08:10:25.397Z,1026.3
2023-05-17T08:11:41.549Z,1026.3
2023-05-17T08:12:57.693Z,1026.3
2023-05-17T08:14:13.857Z,1026.3
2023-05-17T08:15:30.014Z,1026.3
2023-05-17T08:16:46.166Z,1026.3
2023-05-17T08:18:02.309Z,1026.3
2023-05-17T08:19:18.477Z,1026.3
2023-05-17T08:20:34.618Z,1026.3
2023-05-17T08:21:50.769Z,1026.3
2023-05-17T08:23:06.914Z,1026.3
2023-05-17T08:24:23.069Z,1026.4
2023-05-17T08:25:39.228Z,1026.3
2023-05-17T08:26:54.405Z,1026.3
2023-05-17T08:28:10.563Z,1026.3
2023-05-17T08:29:26.699Z,1026.4
2023-05-17T08:30:42.865Z,1026.4
2023-05-17T08:31:59.008Z,1026.4
2023-05-17T08:33:15.168Z,1026.4
2023-05-17T08:34:31.317Z,1026.4
2023-05-17T08:35:47.460Z,1026.4
2023-05-17T08:37:03.613Z,1026.4
2023-05-17T08:38:19.761Z,1026.4
2023-05-17T08:39:35.905Z,1026.4
2023-05-17T08:40:52.070Z,1026.4
2023-05-17T08:42:08.209Z,1026.4
2023-05-17T08:43:23.383Z,1026.4
2023-05-17T08:44:39.541Z,1026.4
2023-05-17T08:45:55.678Z,1026.4
2023-05-17T08:47:11.845Z,1026.4
2023-05-17T08:48:27.998Z,1026.4
2023-05-17T08:49:44.137Z,1026.4
2023-05-17T08:50:59.307Z,1026.5
2023-05-17T08:52:15.464Z,1026.5
2023-05-17T08:53:31.622Z,1026.5
2023-05-17T08:54:47.780Z,1026.5
2023-05-17T08:56:03.945Z,1026.5
2023-05-17T08:57:20.075Z,1026.5
2023-05-17T08:58:36.226Z,1026.5
2023-05-17T08:59:52.387Z,1026.5
2023-05-17T09:01:08.541Z,1026.5
2023-05-17T09:02:24.693Z,1026.5
2023-05-17T09:03:40.827Z,1026.5
2023-05-17T09:04:56.986Z,1026.5
2023-05-17T09:06:13.123Z,1026.5
2023-05-17T09:07:28.285Z,1026.5
2023-05-17T09:08:44.442Z,1026.5
2023-05-17T09:10:00.594Z,1026.5
2023-05-17T09:11:16.752Z,1026.5
2023-05-17T09:12:32.884Z,1026.5
2023-05-17T09:13:49.033Z,1026.6
2023-05-17T09:15:05.192Z,1026.6
2023-05-17T09:16:21.341Z,1026.5
2023-05-17T09:17:37.492Z,1026.5
2023-05-17T09:18:53.614Z,1026.5
2023-05-17T09:20:09.765Z,1026.5
2023-05-17T09:21:25.902Z,1026.4
2023-05-17T09:22:42.060Z,1026.5
2023-05-17T09:23:57.221Z,1026.5
2023-05-17T09:25:13.365Z,1026.5
2023-05-17T09:26:29.517Z,1026.5
2023-05-17T09:27:45.654Z,1026.5
2023-05-17T09:29:01.804Z,1026.5
2023-05-17T09:30:17.934Z,1026.6
2023-05-17T09:31:34.086Z,1026.6
2023-05-17T09:32:50.214Z,1026.6
2023-05-17T09:34:06.373Z,1026.6
2023-05-17T09:35:22.516Z,1026.6
2023-05-17T09:36:38.660Z,1026.6
2023-05-17T09:37:54.781Z,1026.6
2023-05-17T09:39:10.934Z,1026.6
2023-05-17T09:40:26.095Z,1026.6
2023-05-17T09:41:42.231Z,1026.6
2023-05-17T09:42:58.383Z,1026.5
2023-05-17T09:44:14.527Z,1026.5
2023-05-17T09:45:30.663Z,1026.5
2023-05-17T09:46:46.821Z,1026.5
2023-05-17T09:48:02.958Z,1026.5
2023-05-17T09:49:19.097Z,1026.4
2023-05-17T09:50:35.252Z,1026.5
2023-05-17T09:51:51.397Z,1026.5
2023-05-17T09:53:07.547Z,1026.5
2023-05-17T09:54:23.685Z,1026.5
2023-05-17T09:55:39.834Z,1026.5
2023-05-17T09:56:55.005Z,1026.6
2023-05-17T09:58:11.147Z,1026.5
2023-05-17T09:59:27.291Z,1026.5
2023-05-17T10:00:43.434Z,1026.5
2023-05-17T10:01:59.578Z,1026.5
2023-05-17T10:03:15.697Z,1026.4
2023-05-17T10:04:31.851Z,1026.4
2023-05-17T10:05:47.975Z,1026.4
2023-05-17T10:07:04.133Z,1026.4
2023-05-17T10:08:20.263Z,1026.4
2023-05-17T10:09:36.405Z,1026.5
2023-05-17T10:10:52.536Z,1026.5
2023-05-17T10:12:08.687Z,1026.5
2023-05-17T10:13:23.841Z,1026.5
2023-05-17T10:14:39.964Z,1026.5
2023-05-17T10:15:56.109Z,1026.5
2023-05-17T10:17:12.243Z,1026.5
2023-05-17T10:18:28.394Z,1026.5
2023-05-17T10:19:44.525Z,1026.5
2023-05-17T10:21:00.662Z,1026.6
2023-05-17T10:22:16.808Z,1026.5
2023-05-17T10:23:32.973Z,1026.6
2023-05-17T10:24:49.100Z,1026.6
2023-05-17T10:26:05.236Z,1026.5
2023-05-17T10:27:21.382Z,1026.6
2023-05-17T10:28:37.547Z,1026.5
2023-05-17T10:29:52.707Z,1026.5
2023-05-17T10:31:08.851Z,1026.5
2023-05-17T10:32:24.980Z,1026.5
2023-05-17T10:33:41.124Z,1026.5
2023-05-17T10:34:57.254Z,1026.5
2023-05-17T10:36:13.400Z,1026.5
2023-05-17T10:37:29.527Z,1026.5
2023-05-17T10:38:45.671Z,1026.5
2023-05-17T10:40:01.815Z,1026.4
2023-05-17T10:41:17.946Z,1026.5
2023-05-17T10:42:34.081Z,1026.5
2023-05-17T10:43:50.232Z,1026.5
2023-05-17T10:45:06.362Z,1026.4
2023-05-17T10:46:21.524Z,1026.4
2023-05-17T10:47:37.661Z,1026.4
2023-05-17T10:48:53.790Z,1026.5
2023-05-17T10:50:09.927Z,1026.4
2023-05-17T10:51:26.067Z,1026.4
2023-05-17T10:52:42.215Z,1026.4
2023-05-17T10:53:58.349Z,1026.4
2023-05-17T10:55:14.489Z,1026.3
2023-05-17T10:56:30.620Z,1026.3
2023-05-17T10:57:46.754Z,1026.2
2023-05-17T10:59:02.891Z,1026.2
2023-05-17T11:00:19.020Z,1026.2
2023-05-17T11:01:35.153Z,1026.2
2023-05-17T11:02:50.318Z,1026.2
2023-05-17T11:04:06.449Z,1026.2
2023-05-17T11:05:22.579Z,1026.3
2023-05-17T11:06:38.722Z,1026.2
2023-05-17T11:07:54.845Z,1026.2
2023-05-17T11:09:10.990Z,1026.2
2023-05-17T11:10:27.132Z,1026.2
2023-05-17T11:11:43.248Z,1026.2
2023-05-17T11:12:59.384Z,1026.2
2023-05-17T11:14:15.522Z,1026.2
2023-05-17T11:15:31.653Z,1026.2
2023-05-17T11:16:47.795Z,1026.2
2023-05-17T11:18:03.936Z,1026.2
2023-05-17T11:19:19.079Z,1026.2
2023-05-17T11:20:35.225Z,1026.2
2023-05-17T11:21:51.360Z,1026.2
2023-05-17T11:23:07.482Z,1026.2
2023-05-17T11:24:23.619Z,1026.2
2023-05-17T11:25:39.749Z,1026.2
2023-05-17T11:26:55.885Z,1026.2
2023-05-17T11:28:12.021Z,1026.2
2023-05-17T11:29:28.167Z,1026.2
2023-05-17T11:30:44.305Z,1026.2
2023-05-17T11:32:00.439Z,1026.2
2023-05-17T11:33:16.562Z,1026.2
2023-05-17T11:34:32.684Z,1026.2
2023-05-17T11:35:47.834Z,1026.2
2023-05-17T11:37:03.977Z,1026.2
2023-05-17T11:38:20.099Z,1026.1
2023-05-17T11:39:36.235Z,1026.2
2023-05-17T11:40:52.343Z,1026.2
2023-05-17T11:42:08.481Z,1026.2
2023-05-17T11:43:24.600Z,1026.2
2023-05-17T11:44:40.733Z,1026.2
2023-05-17T11:45:56.862Z,1026.2
2023-05-17T11:47:12.986Z,1026.2
2023-05-17T11:48:29.137Z,1026.1
2023-05-17T11:49:45.266Z,1026.2
2023-05-17T11:51:01.395Z,1026.2
2023-05-17T11:52:16.544Z,1026.3
2023-05-17T11:53:32.681Z,1026.2
2023-05-17T11:54:48.803Z,1026.2
2023-05-17T11:56:04.940Z,1026.1
2023-05-17T11:57:21.061Z,1026.1
2023-05-17T11:58:37.200Z,1026.1
2023-05-17T11:59:53.329Z,1026.1
2023-05-17T12:01:09.436Z,1026
2023-05-17T12:02:25.588Z,1026.1
2023-05-17T12:03:41.710Z,1026.1
2023-05-17T12:04:57.848Z,1026.1
2023-05-17T12:06:13.963Z,1026.1
2023-05-17T12:07:30.099Z,1026
2023-05-17T12:08:45.230Z,1026.1
2023-05-17T12:10:01.369Z,1026.1
2023-05-17T12:11:17.491Z,1026.1
2023-05-17T12:12:33.607Z,1026.1
2023-05-17T12:13:49.752Z,1026.1
2023-05-17T12:15:05.876Z,1026.2
2023-05-17T12:16:22.012Z,1026.1
2023-05-17T12:17:38.146Z,1026.2
2023-05-17T12:18:54.263Z,1026.2
2023-05-17T12:20:10.397Z,1026.2
2023-05-17T12:21:26.543Z,1026.2
2023-05-17T12:22:42.673Z,1026.2
2023-05-17T12:23:58.790Z,1026.2
2023-05-17T12:25:13.936Z,1026.2
2023-05-17T12:26:30.079Z,1026.2
2023-05-17T12:27:46.216Z,1026.2
2023-05-17T12:29:02.353Z,1026.2
2023-05-17T12:30:18.476Z,1026.2
2023-05-17T12:31:34.604Z,1026.2
2023-05-17T12:32:50.736Z,1026.2
2023-05-17T12:34:06.872Z,1026.1
2023-05-17T12:35:22.995Z,1026.1
2023-05-17T12:36:39.130Z,1026.1
2023-05-17T12:37:55.254Z,1026.1
2023-05-17T12:39:11.398Z,1026.1
2023-05-17T12:40:27.527Z,1026.1
2023-05-17T12:41:42.676Z,1026.1
2023-05-17T12:42:58.806Z,1026.1
2023-05-17T12:44:14.950Z,1026.1
2023-05-17T12:45:31.085Z,1026.1
2023-05-17T12:46:47.222Z,1026.1
2023-05-17T12:48:03.340Z,1026.1
2023-05-17T12:49:19.478Z,1026.1
2023-05-17T12:50:35.591Z,1026.1
2023-05-17T12:51:51.720Z,1026.1
2023-05-17T12:53:07.856Z,1026.1
2023-05-17T12:54:23.979Z,1026
2023-05-17T12:55:40.123Z,1026
2023-05-17T12:56:56.253Z,1026.1
2023-05-17T12:58:11.407Z,1026
2023-05-17T12:59:27.530Z,1026
2023-05-17T13:00:43.653Z,1026
2023-05-17T13:01:59.777Z,1026
2023-05-17T13:03:15.904Z,1026
2023-05-17T13:04:32.044Z,1026
2023-05-17T13:05:47.190Z,1026
2023-05-17T13:07:03.320Z,1026
2023-05-17T13:08:19.465Z,1026
2023-05-17T13:09:35.586Z,1026
2023-05-17T13:10:51.708Z,1026
2023-05-17T13:12:07.830Z,1026
2023-05-17T13:13:23.962Z,1026
2023-05-17T13:14:40.085Z,1026
2023-05-17T13:15:56.226Z,1026
2023-05-17T13:17:12.350Z,1026
2023-05-17T13:18:28.478Z,1026
2023-05-17T13:19:44.594Z,1026
2023-05-17T13:21:00.742Z,1026
2023-05-17T13:22:15.876Z,1026
2023-05-17T13:23:31.998Z,1026
2023-05-17T13:24:48.134Z,1026
2023-05-17T13:26:04.254Z,1026
2023-05-17T13:27:20.356Z,1026
2023-05-17T13:28:36.464Z,1026
2023-05-17T13:29:52.601Z,1026
2023-05-17T13:31:08.721Z,1026
2023-05-17T13:32:24.840Z,1026
2023-05-17T13:33:40.954Z,1025.9
2023-05-17T13:34:57.078Z,1026
2023-05-17T13:36:13.179Z,1025.9
2023-05-17T13:37:29.314Z,1025.9
2023-05-17T13:38:44.449Z,1025.9
2023-05-17T13:40:00.563Z,1025.9
2023-05-17T13:41:16.680Z,1025.9
2023-05-17T13:42:32.816Z,1025.9
2023-05-17T13:43:48.918Z,1025.9
2023-05-17T13:45:05.028Z,1025.9
2023-05-17T13:46:21.158Z,1025.9
2023-05-17T13:47:37.266Z,1025.8
2023-05-17T13:48:53.379Z,1025.8
2023-05-17T13:50:09.503Z,1025.8
2023-05-17T13:51:25.612Z,1025.8
2023-05-17T13:52:41.748Z,1025.8
2023-05-17T13:53:57.864Z,1025.8
2023-05-17T13:55:12.993Z,1025.8
2023-05-17T13:56:29.127Z,1025.9
2023-05-17T13:57:45.236Z,1025.9
2023-05-17T13:59:01.358Z,1025.9
2023-05-17T14:00:17.502Z,1025.8
2023-05-17T14:01:33.624Z,1025.9
2023-05-17T14:02:49.734Z,1025.8
2023-05-17T14:04:05.869Z,1025.8
2023-05-17T14:05:21.981Z,1025.8
2023-05-17T14:06:38.101Z,1025.8
2023-05-17T14:07:54.210Z,1025.8
2023-05-17T14:09:10.331Z,1025.7
2023-05-17T14:10:26.455Z,1025.8
2023-05-17T14:11:41.582Z,1025.7
2023-05-17T14:12:57.718Z,1025.7
2023-05-17T14:14:13.826Z,1025.7
2023-05-17T14:15:29.950Z,1025.7
2023-05-17T14:16:46.058Z,1025.7
2023-05-17T14:18:02.187Z,1025.7
2023-05-17T14:19:18.289Z,1025.7
2023-05-17T14:20:34.404Z,1025.7
2023-05-17T14:21:50.519Z,1025.7
2023-05-17T14:23:06.635Z,1025.7
2023-05-17T14:24:22.760Z,1025.8
2023-05-17T14:25:38.870Z,1025.8
2023-05-17T14:26:54.975Z,1025.8
2023-05-17T14:28:10.099Z,1025.8
2023-05-17T14:29:26.210Z,1025.7
2023-05-17T14:30:42.334Z,1025.7
2023-05-17T14:31:58.449Z,1025.7
2023-05-17T14:33:14.557Z,1025.7
2023-05-17T14:34:30.672Z,1025.7
2023-05-17T14:35:46.789Z,1025.7
2023-05-17T14:37:02.918Z,1025.7
2023-05-17T14:38:19.020Z,1025.8
2023-05-17T14:39:35.144Z,1025.8
2023-05-17T14:40:51.258Z,1025.8
2023-05-17T14:42:07.374Z,1025.8
2023-05-17T14:43:23.480Z,1025.8
2023-05-17T14:44:38.615Z,1025.8
2023-05-17T14:45:54.738Z,1025.8
2023-05-17T14:47:10.862Z,1025.8
2023-05-17T14:48:26.975Z,1025.8
2023-05-17T14:49:43.092Z,1025.7
2023-05-17T14:50:59.199Z,1025.8
2023-05-17T14:52:15.337Z,1025.8
2023-05-17T14:53:31.452Z,1025.8
2023-05-17T14:54:47.576Z,1025.8
2023-05-17T14:56:03.677Z,1025.8
2023-05-17T14:57:19.799Z,1025.7
2023-05-17T14:58:35.923Z,1025.7
2023-05-17T14:59:52.033Z,1025.7
2023-05-17T15:01:07.163Z,1025.7
2023-05-17T15:02:23.279Z,1025.7
2023-05-17T15:03:39.395Z,1025.7
2023-05-17T15:04:55.518Z,1025.6
2023-05-17T15:06:11.632Z,1025.6
2023-05-17T15:07:27.742Z,1025.7
2023-05-17T15:08:43.858Z,1025.7
2023-05-17T15:09:59.988Z,1025.6
2023-05-17T15:11:16.101Z,1025.7
2023-05-17T15:12:32.218Z,1025.7
2023-05-17T15:13:48.326Z,1025.6
2023-05-17T15:15:04.441Z,1025.6
2023-05-17T15:16:20.557Z,1025.6
2023-05-17T15:17:35.698Z,1025.6
2023-05-17T15:18:51.807Z,1025.6
2023-05-17T15:20:07.935Z,1025.6
2023-05-17T15:21:24.045Z,1025.6
2023-05-17T15:22:40.168Z,1025.6
2023-05-17T15:23:56.269Z,1025.6
2023-05-17T15:25:12.384Z,1025.6
2023-05-17T15:26:28.501Z,1025.6
2023-05-17T15:27:44.618Z,1025.6
2023-05-17T15:29:00.731Z,1025.6
2023-05-17T15:30:16.000Z,1025.6
2023-05-17T15:31:32.942Z,1025.6
2023-05-17T15:32:49.057Z,1025.6
2023-05-17T15:34:05.165Z,1025.6
2023-05-17T15:35:20.298Z,1025.5
2023-05-17T15:36:36.414Z,1025.6
2023-05-17T15:37:52.523Z,1025.5
2023-05-17T15:39:08.631Z,1025.6
2023-05-17T15:40:24.756Z,1025.6
2023-05-17T15:41:40.866Z,1025.5
2023-05-17T15:42:56.992Z,1025.5
2023-05-17T15:44:13.100Z,1025.5
2023-05-17T15:45:29.216Z,1025.5
2023-05-17T15:46:45.318Z,1025.6
2023-05-17T15:48:01.434Z,1025.6
2023-05-17T15:49:17.549Z,1025.6
2023-05-17T15:50:33.650Z,1025.5
2023-05-17T15:51:48.784Z,1025.5
2023-05-17T15:53:04.886Z,1025.6
2023-05-17T15:54:20.994Z,1025.6
2023-05-17T15:55:37.096Z,1025.6
2023-05-17T15:56:53.204Z,1025.6